Selfridge, North Dakota
Current Conditions -  °F | °C
As of 9:15 PM on Saturday 20 Dec 2014 (Local Time) from K7L2 Reporting Station
Clear Clear  
Wind Chill: 17°   Ceiling: Unl
Heat Index: 25°   Visibility: 10mi
Dew Point: 25°   Wind: 7mph
Humidity: 100%   Direction: 140°SE
Pressure: 29.81"   Gusts: NA
Location:  46.04°N, 100.93°W
Report Text: K7L2 210415Z AUTO 14006KT 10SM CLR M04/M04 A2981 RMK AO2
Loading
Personal Weather Stations






























Interactive Weather Map New forecast layout! Learn more

10-Day Weather Forecast

Advertisements
Track Severe Weather on mobile